HEAX/ALY METAR and TAF weather

Enter ICAO airport designator
Station Type Date Time Source
HEAX METAR 2019/08/21 09:00 UTC NOAA

HEAX 210900Z 32009KT 9999 SCT020 29/19 Q1013 NOSIG


Station Type Date Time Source
HEAX Decoded METAR 2019/08/21 09:00 UTC NOAA

Station name not available
Aug 21, 2019 - 05:00 AM EDT / 2019.08.21 0900 UTC
Wind: from the NW (320 degrees) at 10 MPH (9 KT):0
Visibility: greater than 7 mile(s):0
Sky conditions: partly cloudy
Temperature: 84 F (29 C)
Dew Point: 66 F (19 C)
Relative Humidity: 54%
Pressure (altimeter): 29.91 in. Hg (1013 hPa)
ob: HEAX 210900Z 32009KT 9999 SCT020 29/19 Q1013 NOSIG
cycle: 9

Station Type Date Time Source
HEAX TAF 2019/08/21 06:59 UTC NOAA

TAF HEAX 210500Z 2106/2212 34011KT 9999 SCT020

Example: see airport list